sensor_id;sensor_type;location;lat;lon;timestamp;temperature;humidity
13572;DHT22;6857;53.484;10.216;2024-03-22T00:01:44;8.20;99.90
13572;DHT22;6857;53.484;10.216;2024-03-22T00:04:11;8.20;99.90
13572;DHT22;6857;53.484;10.216;2024-03-22T00:06:36;8.30;99.90
13572;DHT22;6857;53.484;10.216;2024-03-22T00:09:02;8.30;99.90
13572;DHT22;6857;53.484;10.216;2024-03-22T00:11:28;8.30;99.90
13572;DHT22;6857;53.484;10.216;2024-03-22T00:13:54;8.30;99.90
13572;DHT22;6857;53.484;10.216;2024-03-22T00:16:19;8.30;99.90
13572;DHT22;6857;53.484;10.216;2024-03-22T00:18:45;8.30;99.90
13572;DHT22;6857;53.484;10.216;2024-03-22T00:21:10;8.30;99.90
13572;DHT22;6857;53.484;10.216;2024-03-22T00:23:36;8.30;99.90
13572;DHT22;6857;53.484;10.216;2024-03-22T00:26:01;8.30;99.90
13572;DHT22;6857;53.484;10.216;2024-03-22T00:28:27;8.30;99.90
13572;DHT22;6857;53.484;10.216;2024-03-22T00:30:52;8.30;99.90
13572;DHT22;6857;53.484;10.216;2024-03-22T00:33:18;8.30;99.90
13572;DHT22;6857;53.484;10.216;2024-03-22T00:35:43;8.30;99.90
13572;DHT22;6857;53.484;10.216;2024-03-22T00:38:09;8.30;99.90
13572;DHT22;6857;53.484;10.216;2024-03-22T00:40:34;8.30;99.90
13572;DHT22;6857;53.484;10.216;2024-03-22T00:43:00;8.30;99.90
13572;DHT22;6857;53.484;10.216;2024-03-22T00:45:26;8.30;99.90
13572;DHT22;6857;53.484;10.216;2024-03-22T00:47:51;8.40;99.90
13572;DHT22;6857;53.484;10.216;2024-03-22T00:50:17;8.40;99.90
13572;DHT22;6857;53.484;10.216;2024-03-22T00:52:42;8.40;99.90
13572;DHT22;6857;53.484;10.216;2024-03-22T00:55:08;8.40;99.90
13572;DHT22;6857;53.484;10.216;2024-03-22T00:57:33;8.40;99.90
13572;DHT22;6857;53.484;10.216;2024-03-22T00:59:59;8.40;99.90
13572;DHT22;6857;53.484;10.216;2024-03-22T01:02:24;8.40;99.90
13572;DHT22;6857;53.484;10.216;2024-03-22T01:04:50;8.40;99.90
13572;DHT22;6857;53.484;10.216;2024-03-22T01:07:16;8.40;99.90
13572;DHT22;6857;53.484;10.216;2024-03-22T01:09:41;8.50;99.90
13572;DHT22;6857;53.484;10.216;2024-03-22T01:12:09;8.50;99.90
13572;DHT22;6857;53.484;10.216;2024-03-22T01:14:35;8.50;99.90
13572;DHT22;6857;53.484;10.216;2024-03-22T01:17:01;8.50;99.90
13572;DHT22;6857;53.484;10.216;2024-03-22T01:19:26;8.50;99.90
13572;DHT22;6857;53.484;10.216;2024-03-22T01:21:52;8.60;99.90
13572;DHT22;6857;53.484;10.216;2024-03-22T01:24:17;8.60;99.90
13572;DHT22;6857;53.484;10.216;2024-03-22T01:26:43;8.60;99.90
13572;DHT22;6857;53.484;10.216;2024-03-22T01:29:09;8.60;99.90
13572;DHT22;6857;53.484;10.216;2024-03-22T01:31:34;8.50;99.90
13572;DHT22;6857;53.484;10.216;2024-03-22T01:34:00;8.60;99.90
13572;DHT22;6857;53.484;10.216;2024-03-22T01:36:25;8.60;99.90
13572;DHT22;6857;53.484;10.216;2024-03-22T01:38:51;8.60;99.90
13572;DHT22;6857;53.484;10.216;2024-03-22T01:41:16;8.60;99.90
13572;DHT22;6857;53.484;10.216;2024-03-22T01:43:43;8.60;99.90
13572;DHT22;6857;53.484;10.216;2024-03-22T01:46:08;8.60;99.90
13572;DHT22;6857;53.484;10.216;2024-03-22T01:48:34;8.60;99.90
13572;DHT22;6857;53.484;10.216;2024-03-22T01:51:01;8.60;99.90
13572;DHT22;6857;53.484;10.216;2024-03-22T01:53:27;8.60;99.90
13572;DHT22;6857;53.484;10.216;2024-03-22T01:55:53;8.60;99.90
13572;DHT22;6857;53.484;10.216;2024-03-22T01:58:19;8.60;99.90
13572;DHT22;6857;53.484;10.216;2024-03-22T02:00:44;8.60;99.90
13572;DHT22;6857;53.484;10.216;2024-03-22T02:03:11;8.70;99.90
13572;DHT22;6857;53.484;10.216;2024-03-22T02:05:36;8.70;99.90
13572;DHT22;6857;53.484;10.216;2024-03-22T02:08:02;8.70;99.90
13572;DHT22;6857;53.484;10.216;2024-03-22T02:10:28;8.70;99.90
13572;DHT22;6857;53.484;10.216;2024-03-22T02:12:53;8.80;99.90
13572;DHT22;6857;53.484;10.216;2024-03-22T02:15:19;8.90;99.90
13572;DHT22;6857;53.484;10.216;2024-03-22T02:17:44;8.90;99.90
13572;DHT22;6857;53.484;10.216;2024-03-22T02:20:10;8.90;99.90
13572;DHT22;6857;53.484;10.216;2024-03-22T02:22:37;9.00;99.90
13572;DHT22;6857;53.484;10.216;2024-03-22T02:25:03;9.00;99.90
13572;DHT22;6857;53.484;10.216;2024-03-22T02:27:28;9.10;99.90
13572;DHT22;6857;53.484;10.216;2024-03-22T02:29:54;9.10;99.90
13572;DHT22;6857;53.484;10.216;2024-03-22T02:32:20;9.10;99.90
13572;DHT22;6857;53.484;10.216;2024-03-22T02:34:45;9.10;99.90
13572;DHT22;6857;53.484;10.216;2024-03-22T02:37:11;9.20;99.90
13572;DHT22;6857;53.484;10.216;2024-03-22T02:39:36;9.20;99.90
13572;DHT22;6857;53.484;10.216;2024-03-22T02:42:02;9.20;99.90
13572;DHT22;6857;53.484;10.216;2024-03-22T02:44:27;9.30;99.90
13572;DHT22;6857;53.484;10.216;2024-03-22T02:46:53;9.30;99.90
13572;DHT22;6857;53.484;10.216;2024-03-22T02:49:18;9.30;99.90
13572;DHT22;6857;53.484;10.216;2024-03-22T02:51:44;9.30;99.90
13572;DHT22;6857;53.484;10.216;2024-03-22T02:54:09;9.30;99.90
13572;DHT22;6857;53.484;10.216;2024-03-22T02:56:35;9.40;99.90
13572;DHT22;6857;53.484;10.216;2024-03-22T02:59:00;9.40;99.90
13572;DHT22;6857;53.484;10.216;2024-03-22T03:01:26;9.40;99.90
13572;DHT22;6857;53.484;10.216;2024-03-22T03:03:51;9.40;99.90
13572;DHT22;6857;53.484;10.216;2024-03-22T03:06:17;9.50;99.90
13572;DHT22;6857;53.484;10.216;2024-03-22T03:08:45;9.40;99.90
13572;DHT22;6857;53.484;10.216;2024-03-22T03:11:11;9.50;99.90
13572;DHT22;6857;53.484;10.216;2024-03-22T03:13:36;9.50;99.90
13572;DHT22;6857;53.484;10.216;2024-03-22T03:16:02;9.50;99.90
13572;DHT22;6857;53.484;10.216;2024-03-22T03:18:28;9.50;99.90
13572;DHT22;6857;53.484;10.216;2024-03-22T03:20:53;9.60;99.90
13572;DHT22;6857;53.484;10.216;2024-03-22T03:23:19;9.60;99.90
13572;DHT22;6857;53.484;10.216;2024-03-22T03:25:45;9.60;99.90
13572;DHT22;6857;53.484;10.216;2024-03-22T03:28:11;9.60;99.90
13572;DHT22;6857;53.484;10.216;2024-03-22T03:30:38;9.50;99.90
13572;DHT22;6857;53.484;10.216;2024-03-22T03:33:04;9.60;99.90
13572;DHT22;6857;53.484;10.216;2024-03-22T03:35:30;9.50;99.90
13572;DHT22;6857;53.484;10.216;2024-03-22T03:37:55;9.50;99.90
13572;DHT22;6857;53.484;10.216;2024-03-22T03:40:21;9.50;99.90
13572;DHT22;6857;53.484;10.216;2024-03-22T03:42:50;9.50;99.90
13572;DHT22;6857;53.484;10.216;2024-03-22T03:45:15;9.50;99.90
13572;DHT22;6857;53.484;10.216;2024-03-22T03:47:41;9.50;99.90
13572;DHT22;6857;53.484;10.216;2024-03-22T03:50:07;9.50;99.90
13572;DHT22;6857;53.484;10.216;2024-03-22T03:52:33;9.50;99.90
13572;DHT22;6857;53.484;10.216;2024-03-22T03:54:58;9.60;99.90
13572;DHT22;6857;53.484;10.216;2024-03-22T03:57:24;9.60;99.90
13572;DHT22;6857;53.484;10.216;2024-03-22T03:59:49;9.60;99.90
13572;DHT22;6857;53.484;10.216;2024-03-22T04:02:15;9.60;99.90
13572;DHT22;6857;53.484;10.216;2024-03-22T04:04:40;9.60;99.90
13572;DHT22;6857;53.484;10.216;2024-03-22T04:07:06;9.60;99.90
13572;DHT22;6857;53.484;10.216;2024-03-22T04:09:31;9.50;99.90
13572;DHT22;6857;53.484;10.216;2024-03-22T04:11:58;9.50;99.90
13572;DHT22;6857;53.484;10.216;2024-03-22T04:14:25;9.50;99.90
13572;DHT22;6857;53.484;10.216;2024-03-22T04:16:50;9.50;99.90
13572;DHT22;6857;53.484;10.216;2024-03-22T04:19:16;9.50;99.90
13572;DHT22;6857;53.484;10.216;2024-03-22T04:21:42;9.40;99.90
13572;DHT22;6857;53.484;10.216;2024-03-22T04:24:07;9.40;99.90
13572;DHT22;6857;53.484;10.216;2024-03-22T04:26:33;9.40;99.90
13572;DHT22;6857;53.484;10.216;2024-03-22T04:28:58;9.50;99.90
13572;DHT22;6857;53.484;10.216;2024-03-22T04:31:24;9.50;99.90
13572;DHT22;6857;53.484;10.216;2024-03-22T04:33:50;9.40;99.90
13572;DHT22;6857;53.484;10.216;2024-03-22T04:36:15;9.50;99.90
13572;DHT22;6857;53.484;10.216;2024-03-22T04:38:41;9.40;99.90
13572;DHT22;6857;53.484;10.216;2024-03-22T04:41:07;9.40;99.90
13572;DHT22;6857;53.484;10.216;2024-03-22T04:43:32;9.50;99.90
13572;DHT22;6857;53.484;10.216;2024-03-22T04:45:58;9.50;99.90
13572;DHT22;6857;53.484;10.216;2024-03-22T04:48:24;9.50;99.90
13572;DHT22;6857;53.484;10.216;2024-03-22T04:50:51;9.60;99.90
13572;DHT22;6857;53.484;10.216;2024-03-22T04:53:17;9.60;99.90
13572;DHT22;6857;53.484;10.216;2024-03-22T04:55:43;9.60;99.90
13572;DHT22;6857;53.484;10.216;2024-03-22T04:58:12;9.60;99.90
13572;DHT22;6857;53.484;10.216;2024-03-22T05:00:38;9.60;99.90
13572;DHT22;6857;53.484;10.216;2024-03-22T05:03:03;9.60;99.90
13572;DHT22;6857;53.484;10.216;2024-03-22T05:05:29;9.60;99.90
13572;DHT22;6857;53.484;10.216;2024-03-22T05:07:54;9.60;99.90
13572;DHT22;6857;53.484;10.216;2024-03-22T05:10:20;9.70;99.90
13572;DHT22;6857;53.484;10.216;2024-03-22T05:12:45;9.70;99.90
13572;DHT22;6857;53.484;10.216;2024-03-22T05:15:11;9.70;99.90
13572;DHT22;6857;53.484;10.216;2024-03-22T05:17:36;9.70;99.90
13572;DHT22;6857;53.484;10.216;2024-03-22T05:20:03;9.70;99.90
13572;DHT22;6857;53.484;10.216;2024-03-22T05:22:28;9.70;99.90
13572;DHT22;6857;53.484;10.216;2024-03-22T05:24:54;9.70;99.90
13572;DHT22;6857;53.484;10.216;2024-03-22T05:27:19;9.70;99.90
13572;DHT22;6857;53.484;10.216;2024-03-22T05:29:45;9.80;99.90
13572;DHT22;6857;53.484;10.216;2024-03-22T05:32:10;9.80;99.90
13572;DHT22;6857;53.484;10.216;2024-03-22T05:34:36;9.80;99.90
13572;DHT22;6857;53.484;10.216;2024-03-22T05:37:02;9.80;99.90
13572;DHT22;6857;53.484;10.216;2024-03-22T05:39:27;9.80;99.90
13572;DHT22;6857;53.484;10.216;2024-03-22T05:41:53;9.80;99.90
13572;DHT22;6857;53.484;10.216;2024-03-22T05:44:21;9.80;99.90
13572;DHT22;6857;53.484;10.216;2024-03-22T05:46:47;9.90;99.90
13572;DHT22;6857;53.484;10.216;2024-03-22T05:49:13;9.90;99.90
13572;DHT22;6857;53.484;10.216;2024-03-22T05:51:38;9.90;99.90
13572;DHT22;6857;53.484;10.216;2024-03-22T05:54:04;9.90;99.90
13572;DHT22;6857;53.484;10.216;2024-03-22T05:56:30;10.00;99.90
13572;DHT22;6857;53.484;10.216;2024-03-22T05:58:55;10.00;99.90
13572;DHT22;6857;53.484;10.216;2024-03-22T06:01:21;10.00;99.90
13572;DHT22;6857;53.484;10.216;2024-03-22T06:03:46;10.00;99.90
13572;DHT22;6857;53.484;10.216;2024-03-22T06:06:12;10.00;99.90
13572;DHT22;6857;53.484;10.216;2024-03-22T06:08:37;10.10;99.90
13572;DHT22;6857;53.484;10.216;2024-03-22T06:11:06;10.10;99.90
13572;DHT22;6857;53.484;10.216;2024-03-22T06:13:32;10.10;99.90
13572;DHT22;6857;53.484;10.216;2024-03-22T06:15:58;10.20;99.90
13572;DHT22;6857;53.484;10.216;2024-03-22T06:18:24;10.20;99.90
13572;DHT22;6857;53.484;10.216;2024-03-22T06:20:49;10.20;99.90
13572;DHT22;6857;53.484;10.216;2024-03-22T06:23:15;10.20;99.90
13572;DHT22;6857;53.484;10.216;2024-03-22T06:25:40;10.30;99.90
13572;DHT22;6857;53.484;10.216;2024-03-22T06:28:06;10.30;99.90
13572;DHT22;6857;53.484;10.216;2024-03-22T06:30:31;10.30;99.90
13572;DHT22;6857;53.484;10.216;2024-03-22T06:32:57;10.40;99.90
13572;DHT22;6857;53.484;10.216;2024-03-22T06:35:22;10.40;99.90
13572;DHT22;6857;53.484;10.216;2024-03-22T06:37:48;10.40;99.90
13572;DHT22;6857;53.484;10.216;2024-03-22T06:40:14;10.50;99.90
13572;DHT22;6857;53.484;10.216;2024-03-22T06:42:40;10.50;99.90
13572;DHT22;6857;53.484;10.216;2024-03-22T06:45:06;10.60;99.90
13572;DHT22;6857;53.484;10.216;2024-03-22T06:47:32;10.60;99.90
13572;DHT22;6857;53.484;10.216;2024-03-22T06:49:57;10.70;99.90
13572;DHT22;6857;53.484;10.216;2024-03-22T06:52:23;10.60;99.90
13572;DHT22;6857;53.484;10.216;2024-03-22T06:54:48;10.70;99.90
13572;DHT22;6857;53.484;10.216;2024-03-22T06:57:14;10.70;99.90
13572;DHT22;6857;53.484;10.216;2024-03-22T06:59:39;10.70;99.90
13572;DHT22;6857;53.484;10.216;2024-03-22T07:02:05;10.80;99.90
13572;DHT22;6857;53.484;10.216;2024-03-22T07:04:31;10.80;99.90
13572;DHT22;6857;53.484;10.216;2024-03-22T07:06:56;10.80;99.90
13572;DHT22;6857;53.484;10.216;2024-03-22T07:09:22;10.90;99.90
13572;DHT22;6857;53.484;10.216;2024-03-22T07:11:47;10.90;99.90
13572;DHT22;6857;53.484;10.216;2024-03-22T07:14:13;10.90;99.90
13572;DHT22;6857;53.484;10.216;2024-03-22T07:16:39;10.90;99.90
13572;DHT22;6857;53.484;10.216;2024-03-22T07:19:04;10.90;99.90
13572;DHT22;6857;53.484;10.216;2024-03-22T07:21:31;10.90;99.90
13572;DHT22;6857;53.484;10.216;2024-03-22T07:23:56;11.00;99.90
13572;DHT22;6857;53.484;10.216;2024-03-22T07:26:22;10.90;99.90
13572;DHT22;6857;53.484;10.216;2024-03-22T07:28:48;11.00;99.90
13572;DHT22;6857;53.484;10.216;2024-03-22T07:31:13;11.00;99.90
13572;DHT22;6857;53.484;10.216;2024-03-22T07:33:39;11.00;99.90
13572;DHT22;6857;53.484;10.216;2024-03-22T07:36:06;11.00;99.90
13572;DHT22;6857;53.484;10.216;2024-03-22T07:38:31;11.10;99.90
13572;DHT22;6857;53.484;10.216;2024-03-22T07:40:57;11.10;99.90
13572;DHT22;6857;53.484;10.216;2024-03-22T07:43:23;11.10;99.90
13572;DHT22;6857;53.484;10.216;2024-03-22T07:45:48;11.10;99.90
13572;DHT22;6857;53.484;10.216;2024-03-22T07:48:14;11.10;99.90
13572;DHT22;6857;53.484;10.216;2024-03-22T07:50:40;11.10;99.90
13572;DHT22;6857;53.484;10.216;2024-03-22T07:53:05;11.10;99.90
13572;DHT22;6857;53.484;10.216;2024-03-22T07:55:31;11.10;99.90
13572;DHT22;6857;53.484;10.216;2024-03-22T07:57:56;11.20;99.90
13572;DHT22;6857;53.484;10.216;2024-03-22T08:00:23;11.20;99.90
13572;DHT22;6857;53.484;10.216;2024-03-22T08:02:53;11.20;99.90
13572;DHT22;6857;53.484;10.216;2024-03-22T08:05:18;11.20;99.90
13572;DHT22;6857;53.484;10.216;2024-03-22T08:07:44;11.20;99.90
13572;DHT22;6857;53.484;10.216;2024-03-22T08:10:10;11.20;99.90
13572;DHT22;6857;53.484;10.216;2024-03-22T08:12:36;11.20;99.90
13572;DHT22;6857;53.484;10.216;2024-03-22T08:15:01;11.20;99.90
13572;DHT22;6857;53.484;10.216;2024-03-22T08:17:28;11.20;99.90
13572;DHT22;6857;53.484;10.216;2024-03-22T08:19:53;11.30;99.90
13572;DHT22;6857;53.484;10.216;2024-03-22T08:22:19;11.30;99.90
13572;DHT22;6857;53.484;10.216;2024-03-22T08:24:44;11.30;99.90
13572;DHT22;6857;53.484;10.216;2024-03-22T08:27:10;11.30;99.90
13572;DHT22;6857;53.484;10.216;2024-03-22T08:29:35;11.30;99.90
13572;DHT22;6857;53.484;10.216;2024-03-22T08:32:01;11.20;99.90
13572;DHT22;6857;53.484;10.216;2024-03-22T08:34:30;11.20;99.90
13572;DHT22;6857;53.484;10.216;2024-03-22T08:36:55;11.10;99.90
13572;DHT22;6857;53.484;10.216;2024-03-22T08:39:21;11.00;99.90
13572;DHT22;6857;53.484;10.216;2024-03-22T08:41:47;10.90;99.90
13572;DHT22;6857;53.484;10.216;2024-03-22T08:44:13;10.90;99.90
13572;DHT22;6857;53.484;10.216;2024-03-22T08:46:38;10.80;99.90
13572;DHT22;6857;53.484;10.216;2024-03-22T08:49:04;10.80;99.90
13572;DHT22;6857;53.484;10.216;2024-03-22T08:51:30;10.80;99.90
13572;DHT22;6857;53.484;10.216;2024-03-22T08:53:55;10.80;99.90
13572;DHT22;6857;53.484;10.216;2024-03-22T08:56:21;10.70;99.90
13572;DHT22;6857;53.484;10.216;2024-03-22T08:58:47;10.70;99.90
13572;DHT22;6857;53.484;10.216;2024-03-22T09:01:12;10.70;99.90
13572;DHT22;6857;53.484;10.216;2024-03-22T09:03:38;10.70;99.90
13572;DHT22;6857;53.484;10.216;2024-03-22T09:06:04;10.70;99.90
13572;DHT22;6857;53.484;10.216;2024-03-22T09:08:30;10.60;99.90
13572;DHT22;6857;53.484;10.216;2024-03-22T09:10:56;10.60;99.90
13572;DHT22;6857;53.484;10.216;2024-03-22T09:13:22;10.70;99.90
13572;DHT22;6857;53.484;10.216;2024-03-22T09:15:47;10.70;99.90
13572;DHT22;6857;53.484;10.216;2024-03-22T09:18:13;10.70;99.90
13572;DHT22;6857;53.484;10.216;2024-03-22T09:20:38;10.70;99.90
13572;DHT22;6857;53.484;10.216;2024-03-22T09:23:04;10.70;99.90
13572;DHT22;6857;53.484;10.216;2024-03-22T09:25:30;10.70;99.90
13572;DHT22;6857;53.484;10.216;2024-03-22T09:27:55;10.70;99.90
13572;DHT22;6857;53.484;10.216;2024-03-22T09:30:21;10.80;99.90
13572;DHT22;6857;53.484;10.216;2024-03-22T09:32:47;10.80;99.90
13572;DHT22;6857;53.484;10.216;2024-03-22T09:35:13;10.80;99.90
13572;DHT22;6857;53.484;10.216;2024-03-22T09:37:43;10.70;99.90
13572;DHT22;6857;53.484;10.216;2024-03-22T09:40:09;10.70;99.90
13572;DHT22;6857;53.484;10.216;2024-03-22T09:42:38;10.70;99.90
13572;DHT22;6857;53.484;10.216;2024-03-22T09:45:08;10.70;99.90
13572;DHT22;6857;53.484;10.216;2024-03-22T09:47:34;10.80;99.90
13572;DHT22;6857;53.484;10.216;2024-03-22T09:50:01;10.80;99.90
13572;DHT22;6857;53.484;10.216;2024-03-22T09:52:28;10.80;99.90
13572;DHT22;6857;53.484;10.216;2024-03-22T09:54:55;10.80;99.90
13572;DHT22;6857;53.484;10.216;2024-03-22T09:57:21;10.80;99.90
13572;DHT22;6857;53.484;10.216;2024-03-22T09:59:48;10.70;99.90
13572;DHT22;6857;53.484;10.216;2024-03-22T10:02:13;10.80;99.90
13572;DHT22;6857;53.484;10.216;2024-03-22T10:04:40;10.80;99.90
13572;DHT22;6857;53.484;10.216;2024-03-22T10:07:05;10.80;99.90
13572;DHT22;6857;53.484;10.216;2024-03-22T10:09:32;10.70;99.90
13572;DHT22;6857;53.484;10.216;2024-03-22T10:11:58;10.70;99.90
13572;DHT22;6857;53.484;10.216;2024-03-22T10:14:24;10.70;99.90
13572;DHT22;6857;53.484;10.216;2024-03-22T10:16:51;10.70;99.90
13572;DHT22;6857;53.484;10.216;2024-03-22T10:19:23;10.70;99.90
13572;DHT22;6857;53.484;10.216;2024-03-22T10:22:05;10.70;99.90
13572;DHT22;6857;53.484;10.216;2024-03-22T10:24:33;10.70;99.90
13572;DHT22;6857;53.484;10.216;2024-03-22T10:26:59;10.70;99.90
13572;DHT22;6857;53.484;10.216;2024-03-22T10:29:24;10.70;99.90
13572;DHT22;6857;53.484;10.216;2024-03-22T10:31:51;10.70;99.90
13572;DHT22;6857;53.484;10.216;2024-03-22T10:34:18;10.70;99.90
13572;DHT22;6857;53.484;10.216;2024-03-22T10:36:46;10.70;99.90
13572;DHT22;6857;53.484;10.216;2024-03-22T10:39:15;10.70;99.90
13572;DHT22;6857;53.484;10.216;2024-03-22T10:41:42;10.70;99.90
13572;DHT22;6857;53.484;10.216;2024-03-22T10:44:08;10.70;99.90
13572;DHT22;6857;53.484;10.216;2024-03-22T10:46:35;10.80;99.90
13572;DHT22;6857;53.484;10.216;2024-03-22T10:49:02;10.70;99.90
13572;DHT22;6857;53.484;10.216;2024-03-22T10:51:34;10.70;99.90
13572;DHT22;6857;53.484;10.216;2024-03-22T10:54:02;10.70;99.90
13572;DHT22;6857;53.484;10.216;2024-03-22T10:56:29;10.70;99.90
13572;DHT22;6857;53.484;10.216;2024-03-22T10:58:54;10.70;99.90
13572;DHT22;6857;53.484;10.216;2024-03-22T11:01:25;10.70;99.90
13572;DHT22;6857;53.484;10.216;2024-03-22T11:04:02;10.80;99.90
13572;DHT22;6857;53.484;10.216;2024-03-22T11:06:28;10.80;99.90
13572;DHT22;6857;53.484;10.216;2024-03-22T11:08:59;10.80;99.90
13572;DHT22;6857;53.484;10.216;2024-03-22T11:11:25;10.70;99.90
13572;DHT22;6857;53.484;10.216;2024-03-22T11:13:53;10.80;99.90
13572;DHT22;6857;53.484;10.216;2024-03-22T11:16:21;10.80;99.90
13572;DHT22;6857;53.484;10.216;2024-03-22T11:18:47;10.80;99.90
13572;DHT22;6857;53.484;10.216;2024-03-22T11:21:14;10.80;99.90
13572;DHT22;6857;53.484;10.216;2024-03-22T11:23:40;10.80;99.90
13572;DHT22;6857;53.484;10.216;2024-03-22T11:26:05;10.80;99.90
13572;DHT22;6857;53.484;10.216;2024-03-22T11:28:33;10.80;99.90
13572;DHT22;6857;53.484;10.216;2024-03-22T11:30:59;10.70;99.90
13572;DHT22;6857;53.484;10.216;2024-03-22T11:33:25;10.60;99.90
13572;DHT22;6857;53.484;10.216;2024-03-22T11:35:52;10.50;99.90
13572;DHT22;6857;53.484;10.216;2024-03-22T11:38:18;10.50;99.90
13572;DHT22;6857;53.484;10.216;2024-03-22T11:40:44;10.60;99.90
13572;DHT22;6857;53.484;10.216;2024-03-22T11:43:11;10.50;99.90
13572;DHT22;6857;53.484;10.216;2024-03-22T11:45:40;10.50;99.90
13572;DHT22;6857;53.484;10.216;2024-03-22T11:48:06;10.50;99.90
13572;DHT22;6857;53.484;10.216;2024-03-22T11:50:32;10.50;99.90
13572;DHT22;6857;53.484;10.216;2024-03-22T11:52:58;10.50;99.90
13572;DHT22;6857;53.484;10.216;2024-03-22T11:55:27;10.50;99.90
13572;DHT22;6857;53.484;10.216;2024-03-22T11:57:53;10.50;99.90
13572;DHT22;6857;53.484;10.216;2024-03-22T12:00:18;10.60;99.90
13572;DHT22;6857;53.484;10.216;2024-03-22T12:02:45;10.50;99.90
13572;DHT22;6857;53.484;10.216;2024-03-22T12:05:11;10.50;99.90
13572;DHT22;6857;53.484;10.216;2024-03-22T12:07:37;10.60;99.90
13572;DHT22;6857;53.484;10.216;2024-03-22T12:10:02;10.60;99.90
13572;DHT22;6857;53.484;10.216;2024-03-22T12:12:29;10.60;99.90
13572;DHT22;6857;53.484;10.216;2024-03-22T12:14:55;10.70;99.90
13572;DHT22;6857;53.484;10.216;2024-03-22T12:17:20;10.70;99.90
13572;DHT22;6857;53.484;10.216;2024-03-22T12:19:46;10.70;99.90
13572;DHT22;6857;53.484;10.216;2024-03-22T12:22:12;10.80;99.90
13572;DHT22;6857;53.484;10.216;2024-03-22T12:24:38;10.90;99.90
13572;DHT22;6857;53.484;10.216;2024-03-22T12:27:04;10.90;99.90
13572;DHT22;6857;53.484;10.216;2024-03-22T12:29:32;11.10;99.90
13572;DHT22;6857;53.484;10.216;2024-03-22T12:31:58;11.20;99.90
13572;DHT22;6857;53.484;10.216;2024-03-22T12:34:26;11.20;99.90
13572;DHT22;6857;53.484;10.216;2024-03-22T12:36:51;11.30;99.90
13572;DHT22;6857;53.484;10.216;2024-03-22T12:39:17;11.20;99.90
13572;DHT22;6857;53.484;10.216;2024-03-22T12:41:45;11.20;99.90
13572;DHT22;6857;53.484;10.216;2024-03-22T12:44:11;11.20;99.90
13572;DHT22;6857;53.484;10.216;2024-03-22T12:46:36;11.20;99.90
13572;DHT22;6857;53.484;10.216;2024-03-22T12:49:02;11.10;99.90
13572;DHT22;6857;53.484;10.216;2024-03-22T12:51:28;11.10;99.90
13572;DHT22;6857;53.484;10.216;2024-03-22T12:53:56;11.10;99.90
13572;DHT22;6857;53.484;10.216;2024-03-22T12:56:22;11.10;99.90
13572;DHT22;6857;53.484;10.216;2024-03-22T12:58:54;11.00;99.90
13572;DHT22;6857;53.484;10.216;2024-03-22T13:01:20;11.00;99.90
13572;DHT22;6857;53.484;10.216;2024-03-22T13:03:49;11.00;99.90
13572;DHT22;6857;53.484;10.216;2024-03-22T13:06:14;11.00;99.90
13572;DHT22;6857;53.484;10.216;2024-03-22T13:08:49;11.10;99.90
13572;DHT22;6857;53.484;10.216;2024-03-22T13:14:13;10.90;99.90
13572;DHT22;6857;53.484;10.216;2024-03-22T13:16:45;10.90;99.90
13572;DHT22;6857;53.484;10.216;2024-03-22T13:19:11;10.80;99.90
13572;DHT22;6857;53.484;10.216;2024-03-22T13:21:39;10.80;99.90
13572;DHT22;6857;53.484;10.216;2024-03-22T13:24:05;10.80;99.90
13572;DHT22;6857;53.484;10.216;2024-03-22T13:26:33;10.70;99.90
13572;DHT22;6857;53.484;10.216;2024-03-22T13:28:59;10.70;99.90
13572;DHT22;6857;53.484;10.216;2024-03-22T13:31:27;10.70;99.90
13572;DHT22;6857;53.484;10.216;2024-03-22T13:34:02;10.70;99.90
13572;DHT22;6857;53.484;10.216;2024-03-22T13:36:33;10.80;99.90
13572;DHT22;6857;53.484;10.216;2024-03-22T13:39:03;10.70;99.90
13572;DHT22;6857;53.484;10.216;2024-03-22T13:41:29;10.70;99.90
13572;DHT22;6857;53.484;10.216;2024-03-22T13:43:55;10.70;99.90
13572;DHT22;6857;53.484;10.216;2024-03-22T13:46:21;10.70;99.90
13572;DHT22;6857;53.484;10.216;2024-03-22T13:48:47;10.70;99.90
13572;DHT22;6857;53.484;10.216;2024-03-22T13:51:15;10.70;99.90
13572;DHT22;6857;53.484;10.216;2024-03-22T13:53:44;10.60;99.90
13572;DHT22;6857;53.484;10.216;2024-03-22T13:56:09;10.60;99.90
13572;DHT22;6857;53.484;10.216;2024-03-22T13:58:35;10.60;99.90
13572;DHT22;6857;53.484;10.216;2024-03-22T14:01:00;10.50;99.90
13572;DHT22;6857;53.484;10.216;2024-03-22T14:03:29;10.50;99.90
13572;DHT22;6857;53.484;10.216;2024-03-22T14:05:55;10.40;99.90
13572;DHT22;6857;53.484;10.216;2024-03-22T14:08:20;10.40;99.90
13572;DHT22;6857;53.484;10.216;2024-03-22T14:10:46;10.40;99.90
13572;DHT22;6857;53.484;10.216;2024-03-22T14:13:11;10.40;99.90
13572;DHT22;6857;53.484;10.216;2024-03-22T14:15:37;10.50;99.90
13572;DHT22;6857;53.484;10.216;2024-03-22T14:18:04;10.50;99.90
13572;DHT22;6857;53.484;10.216;2024-03-22T14:20:30;10.50;99.90
13572;DHT22;6857;53.484;10.216;2024-03-22T14:22:56;10.60;99.90
13572;DHT22;6857;53.484;10.216;2024-03-22T14:25:21;10.50;99.90
13572;DHT22;6857;53.484;10.216;2024-03-22T14:27:47;10.50;99.90
13572;DHT22;6857;53.484;10.216;2024-03-22T14:30:14;10.40;99.90
13572;DHT22;6857;53.484;10.216;2024-03-22T14:32:40;10.40;99.90
13572;DHT22;6857;53.484;10.216;2024-03-22T14:35:07;10.30;99.90
13572;DHT22;6857;53.484;10.216;2024-03-22T14:37:33;10.30;99.90
13572;DHT22;6857;53.484;10.216;2024-03-22T14:39:59;10.30;99.90
13572;DHT22;6857;53.484;10.216;2024-03-22T14:42:25;10.20;99.90
13572;DHT22;6857;53.484;10.216;2024-03-22T14:44:51;10.20;99.90
13572;DHT22;6857;53.484;10.216;2024-03-22T14:47:17;10.20;99.90
13572;DHT22;6857;53.484;10.216;2024-03-22T14:49:42;10.10;99.90
13572;DHT22;6857;53.484;10.216;2024-03-22T14:52:08;10.10;99.90
13572;DHT22;6857;53.484;10.216;2024-03-22T14:54:34;10.10;99.90
13572;DHT22;6857;53.484;10.216;2024-03-22T14:56:59;10.00;99.90
13572;DHT22;6857;53.484;10.216;2024-03-22T14:59:28;10.00;99.90
13572;DHT22;6857;53.484;10.216;2024-03-22T15:01:54;9.90;99.90
13572;DHT22;6857;53.484;10.216;2024-03-22T15:04:20;9.90;99.90
13572;DHT22;6857;53.484;10.216;2024-03-22T15:06:46;9.90;99.90
13572;DHT22;6857;53.484;10.216;2024-03-22T15:09:13;9.90;99.90
13572;DHT22;6857;53.484;10.216;2024-03-22T15:11:39;9.90;99.90
13572;DHT22;6857;53.484;10.216;2024-03-22T15:14:04;9.90;99.90
13572;DHT22;6857;53.484;10.216;2024-03-22T15:16:31;9.90;99.90
13572;DHT22;6857;53.484;10.216;2024-03-22T15:18:56;9.80;99.90
13572;DHT22;6857;53.484;10.216;2024-03-22T15:21:22;9.80;99.90
13572;DHT22;6857;53.484;10.216;2024-03-22T15:23:48;9.80;99.90
13572;DHT22;6857;53.484;10.216;2024-03-22T15:26:14;9.80;99.90
13572;DHT22;6857;53.484;10.216;2024-03-22T15:28:40;9.70;99.90
13572;DHT22;6857;53.484;10.216;2024-03-22T15:31:06;9.70;99.90
13572;DHT22;6857;53.484;10.216;2024-03-22T15:33:32;9.60;99.90